sensor_id;sensor_type;location;lat;lon;timestamp;temperature;humidity
15357;DHT22;7778;48.792;9.260;2022-11-20T00:00:29;5.90;99.90
15357;DHT22;7778;48.792;9.260;2022-11-20T00:03:16;5.90;99.90
15357;DHT22;7778;48.792;9.260;2022-11-20T00:06:03;6.00;99.90
15357;DHT22;7778;48.792;9.260;2022-11-20T00:08:50;5.90;99.90
15357;DHT22;7778;48.792;9.260;2022-11-20T00:11:36;6.00;99.90
15357;DHT22;7778;48.792;9.260;2022-11-20T00:14:21;6.00;99.90
15357;DHT22;7778;48.792;9.260;2022-11-20T00:17:07;6.00;99.90
15357;DHT22;7778;48.792;9.260;2022-11-20T00:19:54;6.00;99.90
15357;DHT22;7778;48.792;9.260;2022-11-20T00:22:40;6.10;99.90
15357;DHT22;7778;48.792;9.260;2022-11-20T00:25:25;6.10;99.90
15357;DHT22;7778;48.792;9.260;2022-11-20T00:28:11;6.10;99.90
15357;DHT22;7778;48.792;9.260;2022-11-20T00:31:01;6.20;99.90
15357;DHT22;7778;48.792;9.260;2022-11-20T00:33:48;6.00;99.90
15357;DHT22;7778;48.792;9.260;2022-11-20T00:36:35;6.00;99.90
15357;DHT22;7778;48.792;9.260;2022-11-20T00:39:20;5.90;99.90
15357;DHT22;7778;48.792;9.260;2022-11-20T00:42:06;5.90;99.90
15357;DHT22;7778;48.792;9.260;2022-11-20T00:44:52;5.80;99.90
15357;DHT22;7778;48.792;9.260;2022-11-20T00:47:37;5.70;99.90
15357;DHT22;7778;48.792;9.260;2022-11-20T00:50:23;5.70;99.90
15357;DHT22;7778;48.792;9.260;2022-11-20T00:53:10;5.90;99.90
15357;DHT22;7778;48.792;9.260;2022-11-20T00:55:57;6.10;99.90
15357;DHT22;7778;48.792;9.260;2022-11-20T00:58:46;6.30;99.90
15357;DHT22;7778;48.792;9.260;2022-11-20T01:01:32;6.20;99.90
15357;DHT22;7778;48.792;9.260;2022-11-20T01:04:18;6.20;99.90
15357;DHT22;7778;48.792;9.260;2022-11-20T01:07:04;6.00;99.90
15357;DHT22;7778;48.792;9.260;2022-11-20T01:09:50;5.90;99.90
15357;DHT22;7778;48.792;9.260;2022-11-20T01:12:36;6.00;99.90
15357;DHT22;7778;48.792;9.260;2022-11-20T01:15:21;6.20;99.90
15357;DHT22;7778;48.792;9.260;2022-11-20T01:18:07;6.00;99.90
15357;DHT22;7778;48.792;9.260;2022-11-20T01:20:52;6.10;99.90
15357;DHT22;7778;48.792;9.260;2022-11-20T01:23:39;6.10;99.90
15357;DHT22;7778;48.792;9.260;2022-11-20T01:26:29;6.20;99.90
15357;DHT22;7778;48.792;9.260;2022-11-20T01:29:16;6.20;99.90
15357;DHT22;7778;48.792;9.260;2022-11-20T01:32:03;6.30;99.90
15357;DHT22;7778;48.792;9.260;2022-11-20T01:34:48;6.30;99.90
15357;DHT22;7778;48.792;9.260;2022-11-20T01:37:34;6.30;99.90
15357;DHT22;7778;48.792;9.260;2022-11-20T01:40:19;6.40;99.90
15357;DHT22;7778;48.792;9.260;2022-11-20T01:43:13;6.20;99.90
15357;DHT22;7778;48.792;9.260;2022-11-20T01:46:13;6.20;99.90
15357;DHT22;7778;48.792;9.260;2022-11-20T01:49:02;6.20;99.90
15357;DHT22;7778;48.792;9.260;2022-11-20T01:51:52;6.10;99.90
15357;DHT22;7778;48.792;9.260;2022-11-20T01:54:42;6.10;99.90
15357;DHT22;7778;48.792;9.260;2022-11-20T01:57:34;6.30;99.90
15357;DHT22;7778;48.792;9.260;2022-11-20T02:00:22;6.10;99.90
15357;DHT22;7778;48.792;9.260;2022-11-20T02:03:09;6.10;99.90
15357;DHT22;7778;48.792;9.260;2022-11-20T02:06:04;5.90;99.90
15357;DHT22;7778;48.792;9.260;2022-11-20T02:08:52;5.90;99.90
15357;DHT22;7778;48.792;9.260;2022-11-20T02:11:38;5.90;99.90
15357;DHT22;7778;48.792;9.260;2022-11-20T02:14:24;6.00;99.90
15357;DHT22;7778;48.792;9.260;2022-11-20T02:17:10;5.90;99.90
15357;DHT22;7778;48.792;9.260;2022-11-20T02:19:56;6.00;99.90
15357;DHT22;7778;48.792;9.260;2022-11-20T02:22:48;6.00;99.90
15357;DHT22;7778;48.792;9.260;2022-11-20T02:25:41;6.00;99.90
15357;DHT22;7778;48.792;9.260;2022-11-20T02:28:27;6.10;99.90
15357;DHT22;7778;48.792;9.260;2022-11-20T02:31:13;6.20;99.90
15357;DHT22;7778;48.792;9.260;2022-11-20T02:33:59;6.20;99.90
15357;DHT22;7778;48.792;9.260;2022-11-20T02:36:44;6.20;99.90
15357;DHT22;7778;48.792;9.260;2022-11-20T02:39:31;6.10;99.90
15357;DHT22;7778;48.792;9.260;2022-11-20T02:42:18;6.00;99.90
15357;DHT22;7778;48.792;9.260;2022-11-20T02:45:05;6.00;99.90
15357;DHT22;7778;48.792;9.260;2022-11-20T02:47:51;6.00;99.90
15357;DHT22;7778;48.792;9.260;2022-11-20T02:50:38;6.00;99.90
15357;DHT22;7778;48.792;9.260;2022-11-20T02:53:25;5.90;99.90
15357;DHT22;7778;48.792;9.260;2022-11-20T02:56:10;6.00;99.90
15357;DHT22;7778;48.792;9.260;2022-11-20T02:58:57;5.90;99.90
15357;DHT22;7778;48.792;9.260;2022-11-20T03:01:42;6.00;99.90
15357;DHT22;7778;48.792;9.260;2022-11-20T03:04:28;5.90;99.90
15357;DHT22;7778;48.792;9.260;2022-11-20T03:07:13;5.90;99.90
15357;DHT22;7778;48.792;9.260;2022-11-20T03:09:59;6.00;99.90
15357;DHT22;7778;48.792;9.260;2022-11-20T03:12:44;5.80;99.90
15357;DHT22;7778;48.792;9.260;2022-11-20T03:15:31;5.90;99.90
15357;DHT22;7778;48.792;9.260;2022-11-20T03:18:17;5.80;99.90
15357;DHT22;7778;48.792;9.260;2022-11-20T03:21:02;5.80;99.90
15357;DHT22;7778;48.792;9.260;2022-11-20T03:23:48;5.80;99.90
15357;DHT22;7778;48.792;9.260;2022-11-20T03:26:34;5.80;99.90
15357;DHT22;7778;48.792;9.260;2022-11-20T03:29:19;5.80;99.90
15357;DHT22;7778;48.792;9.260;2022-11-20T03:32:06;5.70;99.90
15357;DHT22;7778;48.792;9.260;2022-11-20T03:34:52;5.80;99.90
15357;DHT22;7778;48.792;9.260;2022-11-20T03:37:37;5.90;99.90
15357;DHT22;7778;48.792;9.260;2022-11-20T03:40:23;5.90;99.90
15357;DHT22;7778;48.792;9.260;2022-11-20T03:43:09;5.80;99.90
15357;DHT22;7778;48.792;9.260;2022-11-20T03:45:55;5.80;99.90
15357;DHT22;7778;48.792;9.260;2022-11-20T03:48:42;5.70;99.90
15357;DHT22;7778;48.792;9.260;2022-11-20T03:51:29;5.80;99.90
15357;DHT22;7778;48.792;9.260;2022-11-20T03:54:15;5.70;99.90
15357;DHT22;7778;48.792;9.260;2022-11-20T03:57:01;5.80;99.90
15357;DHT22;7778;48.792;9.260;2022-11-20T03:59:46;5.70;99.90
15357;DHT22;7778;48.792;9.260;2022-11-20T04:02:32;5.70;99.90
15357;DHT22;7778;48.792;9.260;2022-11-20T04:05:18;5.70;99.90
15357;DHT22;7778;48.792;9.260;2022-11-20T04:08:05;5.60;99.90
15357;DHT22;7778;48.792;9.260;2022-11-20T04:10:50;5.60;99.90
15357;DHT22;7778;48.792;9.260;2022-11-20T04:13:36;5.50;99.90
15357;DHT22;7778;48.792;9.260;2022-11-20T04:16:23;5.50;99.90
15357;DHT22;7778;48.792;9.260;2022-11-20T04:19:11;5.60;99.90
15357;DHT22;7778;48.792;9.260;2022-11-20T04:21:59;5.60;99.90
15357;DHT22;7778;48.792;9.260;2022-11-20T04:24:44;5.70;99.90
15357;DHT22;7778;48.792;9.260;2022-11-20T04:27:30;5.70;99.90
15357;DHT22;7778;48.792;9.260;2022-11-20T04:30:16;5.70;99.90
15357;DHT22;7778;48.792;9.260;2022-11-20T04:33:02;5.80;99.90
15357;DHT22;7778;48.792;9.260;2022-11-20T04:35:47;5.90;99.90
15357;DHT22;7778;48.792;9.260;2022-11-20T04:38:34;5.90;99.90
15357;DHT22;7778;48.792;9.260;2022-11-20T04:41:22;6.00;99.90
15357;DHT22;7778;48.792;9.260;2022-11-20T04:44:08;5.90;99.90
15357;DHT22;7778;48.792;9.260;2022-11-20T04:46:54;5.90;99.90
15357;DHT22;7778;48.792;9.260;2022-11-20T04:49:39;5.80;99.90
15357;DHT22;7778;48.792;9.260;2022-11-20T04:52:24;5.70;99.90
15357;DHT22;7778;48.792;9.260;2022-11-20T04:55:11;5.70;99.90
15357;DHT22;7778;48.792;9.260;2022-11-20T04:57:57;5.70;99.90
15357;DHT22;7778;48.792;9.260;2022-11-20T05:00:43;5.80;99.90
15357;DHT22;7778;48.792;9.260;2022-11-20T05:03:29;5.80;99.90
15357;DHT22;7778;48.792;9.260;2022-11-20T05:06:16;5.70;99.90
15357;DHT22;7778;48.792;9.260;2022-11-20T05:09:03;5.90;99.90
15357;DHT22;7778;48.792;9.260;2022-11-20T05:11:50;5.80;99.90
15357;DHT22;7778;48.792;9.260;2022-11-20T05:14:36;5.80;99.90
15357;DHT22;7778;48.792;9.260;2022-11-20T05:17:21;5.70;99.90
15357;DHT22;7778;48.792;9.260;2022-11-20T05:20:08;5.60;99.90
15357;DHT22;7778;48.792;9.260;2022-11-20T05:22:56;5.70;99.90
15357;DHT22;7778;48.792;9.260;2022-11-20T05:25:41;5.70;99.90
15357;DHT22;7778;48.792;9.260;2022-11-20T05:28:29;5.80;99.90
15357;DHT22;7778;48.792;9.260;2022-11-20T05:31:17;5.80;99.90
15357;DHT22;7778;48.792;9.260;2022-11-20T05:34:03;5.90;99.90
15357;DHT22;7778;48.792;9.260;2022-11-20T05:36:49;5.90;99.90
15357;DHT22;7778;48.792;9.260;2022-11-20T05:39:34;5.90;99.90
15357;DHT22;7778;48.792;9.260;2022-11-20T05:42:20;5.90;99.90
15357;DHT22;7778;48.792;9.260;2022-11-20T05:45:19;5.90;99.90
15357;DHT22;7778;48.792;9.260;2022-11-20T05:48:04;5.90;99.90
15357;DHT22;7778;48.792;9.260;2022-11-20T05:50:50;5.90;99.90
15357;DHT22;7778;48.792;9.260;2022-11-20T05:53:36;5.90;99.90
15357;DHT22;7778;48.792;9.260;2022-11-20T05:56:22;5.90;99.90
15357;DHT22;7778;48.792;9.260;2022-11-20T05:59:07;5.90;99.90
15357;DHT22;7778;48.792;9.260;2022-11-20T06:01:55;6.00;99.90
15357;DHT22;7778;48.792;9.260;2022-11-20T06:04:40;6.00;99.90
15357;DHT22;7778;48.792;9.260;2022-11-20T06:07:25;6.00;99.90
15357;DHT22;7778;48.792;9.260;2022-11-20T06:10:11;6.00;99.90
15357;DHT22;7778;48.792;9.260;2022-11-20T06:12:57;6.00;99.90
15357;DHT22;7778;48.792;9.260;2022-11-20T06:15:48;6.00;99.90
15357;DHT22;7778;48.792;9.260;2022-11-20T06:18:35;6.10;99.90
15357;DHT22;7778;48.792;9.260;2022-11-20T06:21:22;6.00;99.90
15357;DHT22;7778;48.792;9.260;2022-11-20T06:24:09;6.00;99.90
15357;DHT22;7778;48.792;9.260;2022-11-20T06:26:55;6.10;99.90
15357;DHT22;7778;48.792;9.260;2022-11-20T06:29:40;6.10;99.90
15357;DHT22;7778;48.792;9.260;2022-11-20T06:32:25;6.10;99.90
15357;DHT22;7778;48.792;9.260;2022-11-20T06:35:12;6.20;99.90
15357;DHT22;7778;48.792;9.260;2022-11-20T06:37:58;6.20;99.90
15357;DHT22;7778;48.792;9.260;2022-11-20T06:40:43;6.10;99.90
15357;DHT22;7778;48.792;9.260;2022-11-20T06:43:29;6.10;99.90
15357;DHT22;7778;48.792;9.260;2022-11-20T06:46:16;6.00;99.90
15357;DHT22;7778;48.792;9.260;2022-11-20T06:49:03;6.00;99.90
15357;DHT22;7778;48.792;9.260;2022-11-20T06:51:50;6.00;99.90
15357;DHT22;7778;48.792;9.260;2022-11-20T06:54:35;5.90;99.90
15357;DHT22;7778;48.792;9.260;2022-11-20T06:57:21;6.00;99.90
15357;DHT22;7778;48.792;9.260;2022-11-20T07:00:07;6.00;99.90
15357;DHT22;7778;48.792;9.260;2022-11-20T07:02:53;6.00;99.90
15357;DHT22;7778;48.792;9.260;2022-11-20T07:05:39;6.00;99.90
15357;DHT22;7778;48.792;9.260;2022-11-20T07:08:26;6.10;99.90
15357;DHT22;7778;48.792;9.260;2022-11-20T07:11:12;6.10;99.90
15357;DHT22;7778;48.792;9.260;2022-11-20T07:13:58;6.10;99.90
15357;DHT22;7778;48.792;9.260;2022-11-20T07:16:43;6.20;99.90
15357;DHT22;7778;48.792;9.260;2022-11-20T07:19:29;6.20;99.90
15357;DHT22;7778;48.792;9.260;2022-11-20T07:22:14;6.10;99.90
15357;DHT22;7778;48.792;9.260;2022-11-20T07:25:01;6.10;99.90
15357;DHT22;7778;48.792;9.260;2022-11-20T07:27:47;6.20;99.90
15357;DHT22;7778;48.792;9.260;2022-11-20T07:30:33;6.20;99.90
15357;DHT22;7778;48.792;9.260;2022-11-20T07:33:18;6.20;99.90
15357;DHT22;7778;48.792;9.260;2022-11-20T07:36:04;6.30;99.90
15357;DHT22;7778;48.792;9.260;2022-11-20T07:38:50;6.30;99.90
15357;DHT22;7778;48.792;9.260;2022-11-20T07:41:38;6.30;99.90
15357;DHT22;7778;48.792;9.260;2022-11-20T07:44:23;6.40;99.90
15357;DHT22;7778;48.792;9.260;2022-11-20T07:47:09;6.50;99.90
15357;DHT22;7778;48.792;9.260;2022-11-20T07:49:54;6.50;99.90
15357;DHT22;7778;48.792;9.260;2022-11-20T07:52:40;6.70;99.90
15357;DHT22;7778;48.792;9.260;2022-11-20T07:55:25;6.80;99.90
15357;DHT22;7778;48.792;9.260;2022-11-20T07:58:12;6.60;99.90
15357;DHT22;7778;48.792;9.260;2022-11-20T08:01:02;6.70;99.90
15357;DHT22;7778;48.792;9.260;2022-11-20T08:03:49;6.80;99.90
15357;DHT22;7778;48.792;9.260;2022-11-20T08:06:34;6.80;99.90
15357;DHT22;7778;48.792;9.260;2022-11-20T08:09:20;6.70;99.90
15357;DHT22;7778;48.792;9.260;2022-11-20T08:12:06;6.80;99.90
15357;DHT22;7778;48.792;9.260;2022-11-20T08:15:11;6.70;99.90
15357;DHT22;7778;48.792;9.260;2022-11-20T08:18:01;6.80;99.90
15357;DHT22;7778;48.792;9.260;2022-11-20T08:20:47;6.80;99.90
15357;DHT22;7778;48.792;9.260;2022-11-20T08:23:33;6.90;99.90
15357;DHT22;7778;48.792;9.260;2022-11-20T08:26:18;6.90;99.90
15357;DHT22;7778;48.792;9.260;2022-11-20T08:29:04;7.00;99.90
15357;DHT22;7778;48.792;9.260;2022-11-20T08:31:52;7.00;99.90
15357;DHT22;7778;48.792;9.260;2022-11-20T08:34:37;7.10;99.90
15357;DHT22;7778;48.792;9.260;2022-11-20T08:37:23;7.10;99.90
15357;DHT22;7778;48.792;9.260;2022-11-20T08:40:10;7.30;99.90
15357;DHT22;7778;48.792;9.260;2022-11-20T08:42:57;7.20;99.90
15357;DHT22;7778;48.792;9.260;2022-11-20T08:45:42;7.30;99.90
15357;DHT22;7778;48.792;9.260;2022-11-20T08:48:29;7.10;99.90
15357;DHT22;7778;48.792;9.260;2022-11-20T08:51:15;7.20;99.90
15357;DHT22;7778;48.792;9.260;2022-11-20T08:54:01;7.20;99.90
15357;DHT22;7778;48.792;9.260;2022-11-20T08:56:47;7.30;99.90
15357;DHT22;7778;48.792;9.260;2022-11-20T08:59:33;7.50;99.90
15357;DHT22;7778;48.792;9.260;2022-11-20T09:02:18;7.60;99.90
15357;DHT22;7778;48.792;9.260;2022-11-20T09:05:06;7.60;99.90
15357;DHT22;7778;48.792;9.260;2022-11-20T09:07:51;7.70;99.90
15357;DHT22;7778;48.792;9.260;2022-11-20T09:10:37;7.70;99.90
15357;DHT22;7778;48.792;9.260;2022-11-20T09:13:25;7.70;99.90
15357;DHT22;7778;48.792;9.260;2022-11-20T09:16:11;7.50;99.90
15357;DHT22;7778;48.792;9.260;2022-11-20T09:18:56;7.50;99.90
15357;DHT22;7778;48.792;9.260;2022-11-20T09:21:43;7.60;99.90
15357;DHT22;7778;48.792;9.260;2022-11-20T09:24:29;7.50;99.90
15357;DHT22;7778;48.792;9.260;2022-11-20T09:27:14;7.50;99.90
15357;DHT22;7778;48.792;9.260;2022-11-20T09:30:05;7.70;99.90
15357;DHT22;7778;48.792;9.260;2022-11-20T09:32:52;7.60;99.90
15357;DHT22;7778;48.792;9.260;2022-11-20T09:35:37;7.60;99.90
15357;DHT22;7778;48.792;9.260;2022-11-20T09:38:24;7.60;99.90
15357;DHT22;7778;48.792;9.260;2022-11-20T09:41:27;7.70;99.90
15357;DHT22;7778;48.792;9.260;2022-11-20T09:44:29;7.60;99.90
15357;DHT22;7778;48.792;9.260;2022-11-20T09:47:32;7.60;99.90
15357;DHT22;7778;48.792;9.260;2022-11-20T09:50:29;7.70;99.90
15357;DHT22;7778;48.792;9.260;2022-11-20T09:53:27;7.60;99.90
15357;DHT22;7778;48.792;9.260;2022-11-20T09:56:19;7.70;99.90
15357;DHT22;7778;48.792;9.260;2022-11-20T09:59:07;7.80;99.90
15357;DHT22;7778;48.792;9.260;2022-11-20T10:01:57;7.80;99.90
15357;DHT22;7778;48.792;9.260;2022-11-20T10:04:47;8.10;99.90
15357;DHT22;7778;48.792;9.260;2022-11-20T10:07:38;7.80;99.90
15357;DHT22;7778;48.792;9.260;2022-11-20T10:10:34;7.70;99.90
15357;DHT22;7778;48.792;9.260;2022-11-20T10:13:34;7.60;99.90
15357;DHT22;7778;48.792;9.260;2022-11-20T10:16:35;7.70;99.90
15357;DHT22;7778;48.792;9.260;2022-11-20T10:19:40;7.70;99.90
15357;DHT22;7778;48.792;9.260;2022-11-20T10:22:41;7.80;99.90
15357;DHT22;7778;48.792;9.260;2022-11-20T10:25:38;7.70;99.90
15357;DHT22;7778;48.792;9.260;2022-11-20T10:28:35;7.60;99.90
15357;DHT22;7778;48.792;9.260;2022-11-20T10:31:33;7.60;99.90
15357;DHT22;7778;48.792;9.260;2022-11-20T10:34:23;7.50;99.90
15357;DHT22;7778;48.792;9.260;2022-11-20T10:37:15;7.60;99.90
15357;DHT22;7778;48.792;9.260;2022-11-20T10:40:11;7.60;99.90
15357;DHT22;7778;48.792;9.260;2022-11-20T10:43:11;7.50;99.90
15357;DHT22;7778;48.792;9.260;2022-11-20T10:46:01;7.40;99.90
15357;DHT22;7778;48.792;9.260;2022-11-20T10:48:50;7.50;99.90
15357;DHT22;7778;48.792;9.260;2022-11-20T10:51:38;7.40;99.90
15357;DHT22;7778;48.792;9.260;2022-11-20T10:54:33;7.40;99.90
15357;DHT22;7778;48.792;9.260;2022-11-20T10:57:35;7.50;99.90
15357;DHT22;7778;48.792;9.260;2022-11-20T11:00:33;7.50;99.90
15357;DHT22;7778;48.792;9.260;2022-11-20T11:03:23;7.40;99.90
15357;DHT22;7778;48.792;9.260;2022-11-20T11:06:17;7.20;99.90
15357;DHT22;7778;48.792;9.260;2022-11-20T11:09:13;7.30;99.90
15357;DHT22;7778;48.792;9.260;2022-11-20T11:12:01;7.40;99.90
15357;DHT22;7778;48.792;9.260;2022-11-20T11:14:53;7.50;99.90
15357;DHT22;7778;48.792;9.260;2022-11-20T11:17:46;7.50;99.90
15357;DHT22;7778;48.792;9.260;2022-11-20T11:20:33;7.60;99.90
15357;DHT22;7778;48.792;9.260;2022-11-20T11:23:29;7.70;99.90
15357;DHT22;7778;48.792;9.260;2022-11-20T11:26:20;7.50;99.90
15357;DHT22;7778;48.792;9.260;2022-11-20T11:29:17;7.60;99.90
15357;DHT22;7778;48.792;9.260;2022-11-20T11:32:04;7.70;99.90
15357;DHT22;7778;48.792;9.260;2022-11-20T11:35:03;7.80;99.90
15357;DHT22;7778;48.792;9.260;2022-11-20T11:37:51;8.10;99.90
15357;DHT22;7778;48.792;9.260;2022-11-20T11:40:39;8.80;99.90
15357;DHT22;7778;48.792;9.260;2022-11-20T11:43:27;10.00;99.90
15357;DHT22;7778;48.792;9.260;2022-11-20T11:46:34;11.50;99.90
15357;DHT22;7778;48.792;9.260;2022-11-20T11:49:20;12.30;99.90
15357;DHT22;7778;48.792;9.260;2022-11-20T11:52:13;12.80;99.90
15357;DHT22;7778;48.792;9.260;2022-11-20T11:55:03;12.80;99.90
15357;DHT22;7778;48.792;9.260;2022-11-20T11:57:54;12.20;99.90
15357;DHT22;7778;48.792;9.260;2022-11-20T12:00:51;11.90;99.90
15357;DHT22;7778;48.792;9.260;2022-11-20T12:03:54;11.10;99.90
15357;DHT22;7778;48.792;9.260;2022-11-20T12:06:50;10.90;99.90
15357;DHT22;7778;48.792;9.260;2022-11-20T12:09:43;11.00;99.90
15357;DHT22;7778;48.792;9.260;2022-11-20T12:12:34;11.20;99.90
15357;DHT22;7778;48.792;9.260;2022-11-20T12:15:30;11.30;99.90
15357;DHT22;7778;48.792;9.260;2022-11-20T12:18:19;11.40;99.90
15357;DHT22;7778;48.792;9.260;2022-11-20T12:21:15;11.20;99.90
15357;DHT22;7778;48.792;9.260;2022-11-20T12:24:23;10.40;99.90
15357;DHT22;7778;48.792;9.260;2022-11-20T12:27:53;10.10;99.90
15357;DHT22;7778;48.792;9.260;2022-11-20T12:30:55;9.60;99.90
15357;DHT22;7778;48.792;9.260;2022-11-20T12:34:07;9.20;99.90
15357;DHT22;7778;48.792;9.260;2022-11-20T12:37:05;9.20;99.90
15357;DHT22;7778;48.792;9.260;2022-11-20T12:40:00;9.50;99.90
15357;DHT22;7778;48.792;9.260;2022-11-20T12:43:01;9.80;99.90
15357;DHT22;7778;48.792;9.260;2022-11-20T12:46:21;10.20;99.90
15357;DHT22;7778;48.792;9.260;2022-11-20T12:49:27;10.30;99.90
15357;DHT22;7778;48.792;9.260;2022-11-20T12:52:31;10.30;99.90
15357;DHT22;7778;48.792;9.260;2022-11-20T12:55:36;10.10;99.90
15357;DHT22;7778;48.792;9.260;2022-11-20T12:58:34;9.90;99.90
15357;DHT22;7778;48.792;9.260;2022-11-20T13:01:28;10.00;99.90
15357;DHT22;7778;48.792;9.260;2022-11-20T13:04:50;10.10;99.90
15357;DHT22;7778;48.792;9.260;2022-11-20T13:07:45;10.10;99.90
15357;DHT22;7778;48.792;9.260;2022-11-20T13:10:36;10.00;99.90
15357;DHT22;7778;48.792;9.260;2022-11-20T13:13:33;10.00;99.90
15357;DHT22;7778;48.792;9.260;2022-11-20T13:16:31;10.00;99.90
15357;DHT22;7778;48.792;9.260;2022-11-20T13:19:19;10.10;99.90
15357;DHT22;7778;48.792;9.260;2022-11-20T13:22:08;10.20;99.90
15357;DHT22;7778;48.792;9.260;2022-11-20T13:24:54;10.10;99.90
15357;DHT22;7778;48.792;9.260;2022-11-20T13:27:47;9.80;99.90
15357;DHT22;7778;48.792;9.260;2022-11-20T13:30:35;9.70;99.90
15357;DHT22;7778;48.792;9.260;2022-11-20T13:33:25;9.50;99.90
15357;DHT22;7778;48.792;9.260;2022-11-20T13:36:21;9.40;99.90
15357;DHT22;7778;48.792;9.260;2022-11-20T13:39:08;9.40;99.90
15357;DHT22;7778;48.792;9.260;2022-11-20T13:41:55;9.40;99.90
15357;DHT22;7778;48.792;9.260;2022-11-20T13:44:44;9.50;99.90
15357;DHT22;7778;48.792;9.260;2022-11-20T13:47:35;9.70;99.90
15357;DHT22;7778;48.792;9.260;2022-11-20T13:50:38;9.80;99.90
15357;DHT22;7778;48.792;9.260;2022-11-20T13:53:37;9.60;99.90
15357;DHT22;7778;48.792;9.260;2022-11-20T13:56:43;9.40;99.90
15357;DHT22;7778;48.792;9.260;2022-11-20T13:59:46;9.10;99.90
15357;DHT22;7778;48.792;9.260;2022-11-20T14:02:38;9.00;99.90
15357;DHT22;7778;48.792;9.260;2022-11-20T14:05:24;9.10;99.90
15357;DHT22;7778;48.792;9.260;2022-11-20T14:08:14;9.10;99.90
15357;DHT22;7778;48.792;9.260;2022-11-20T14:11:15;9.10;99.90
15357;DHT22;7778;48.792;9.260;2022-11-20T14:14:04;8.90;99.90
15357;DHT22;7778;48.792;9.260;2022-11-20T14:16:51;8.90;99.90
15357;DHT22;7778;48.792;9.260;2022-11-20T14:19:39;9.00;99.90
15357;DHT22;7778;48.792;9.260;2022-11-20T14:22:27;8.90;99.90
15357;DHT22;7778;48.792;9.260;2022-11-20T14:25:20;8.90;99.90
15357;DHT22;7778;48.792;9.260;2022-11-20T14:28:17;8.50;99.90
15357;DHT22;7778;48.792;9.260;2022-11-20T14:31:21;8.30;99.90
15357;DHT22;7778;48.792;9.260;2022-11-20T14:34:14;8.10;99.90
15357;DHT22;7778;48.792;9.260;2022-11-20T14:37:05;8.20;99.90
15357;DHT22;7778;48.792;9.260;2022-11-20T14:39:56;8.30;99.90
15357;DHT22;7778;48.792;9.260;2022-11-20T14:42:43;8.20;99.90
15357;DHT22;7778;48.792;9.260;2022-11-20T14:45:29;8.20;99.90
15357;DHT22;7778;48.792;9.260;2022-11-20T14:48:15;8.40;99.90
15357;DHT22;7778;48.792;9.260;2022-11-20T14:51:02;8.20;99.90
15357;DHT22;7778;48.792;9.260;2022-11-20T14:53:49;8.40;99.90
15357;DHT22;7778;48.792;9.260;2022-11-20T14:56:35;8.20;99.90
15357;DHT22;7778;48.792;9.260;2022-11-20T14:59:25;8.00;99.90
15357;DHT22;7778;48.792;9.260;2022-11-20T15:02:12;8.00;99.90
15357;DHT22;7778;48.792;9.260;2022-11-20T15:04:59;7.80;99.90
15357;DHT22;7778;48.792;9.260;2022-11-20T15:07:52;7.80;99.90
15357;DHT22;7778;48.792;9.260;2022-11-20T15:10:53;7.80;99.90
15357;DHT22;7778;48.792;9.260;2022-11-20T15:13:39;7.90;99.90
15357;DHT22;7778;48.792;9.260;2022-11-20T15:16:25;7.70;99.90
15357;DHT22;7778;48.792;9.260;2022-11-20T15:19:17;7.70;99.90
15357;DHT22;7778;48.792;9.260;2022-11-20T15:22:07;7.80;99.90
15357;DHT22;7778;48.792;9.260;2022-11-20T15:25:10;7.70;99.90
15357;DHT22;7778;48.792;9.260;2022-11-20T15:27:58;7.50;99.90
15357;DHT22;7778;48.792;9.260;2022-11-20T15:30:45;7.40;99.90
15357;DHT22;7778;48.792;9.260;2022-11-20T15:33:32;7.70;99.90
15357;DHT22;7778;48.792;9.260;2022-11-20T15:36:18;7.30;99.90
15357;DHT22;7778;48.792;9.260;2022-11-20T15:39:04;7.40;99.90
15357;DHT22;7778;48.792;9.260;2022-11-20T15:41:50;7.20;99.90
15357;DHT22;7778;48.792;9.260;2022-11-20T15:44:37;7.20;99.90
15357;DHT22;7778;48.792;9.260;2022-11-20T15:47:27;7.20;99.90
15357;DHT22;7778;48.792;9.260;2022-11-20T15:50:17;7.30;99.90
15357;DHT22;7778;48.792;9.260;2022-11-20T15:53:03;7.10;99.90
15357;DHT22;7778;48.792;9.260;2022-11-20T15:55:49;7.30;99.90
15357;DHT22;7778;48.792;9.260;2022-11-20T15:58:34;7.30;99.90
15357;DHT22;7778;48.792;9.260;2022-11-20T16:01:22;7.00;99.90
15357;DHT22;7778;48.792;9.260;2022-11-20T16:04:10;7.00;99.90
15357;DHT22;7778;48.792;9.260;2022-11-20T16:06:56;7.10;99.90
15357;DHT22;7778;48.792;9.260;2022-11-20T16:09:42;7.20;99.90
15357;DHT22;7778;48.792;9.260;2022-11-20T16:12:27;7.00;99.90
15357;DHT22;7778;48.792;9.260;2022-11-20T16:15:31;6.90;99.90
15357;DHT22;7778;48.792;9.260;2022-11-20T16:18:33;6.80;99.90
15357;DHT22;7778;48.792;9.260;2022-11-20T16:21:19;6.80;99.90
15357;DHT22;7778;48.792;9.260;2022-11-20T16:24:06;6.90;99.90
15357;DHT22;7778;48.792;9.260;2022-11-20T16:26:53;6.90;99.90
15357;DHT22;7778;48.792;9.260;2022-11-20T16:29:38;7.00;99.90
15357;DHT22;7778;48.792;9.260;2022-11-20T16:32:24;6.90;99.90
15357;DHT22;7778;48.792;9.260;2022-11-20T16:35:11;6.90;99.90
15357;DHT22;7778;48.792;9.260;2022-11-20T16:37:57;6.90;99.90
15357;DHT22;7778;48.792;9.260;2022-11-20T16:40:43;6.90;99.90
15357;DHT22;7778;48.792;9.260;2022-11-20T16:43:28;6.90;99.90
15357;DHT22;7778;48.792;9.260;2022-11-20T16:46:14;7.00;99.90
15357;DHT22;7778;48.792;9.260;2022-11-20T16:49:03;7.10;99.90
15357;DHT22;7778;48.792;9.260;2022-11-20T16:51:51;7.10;99.90
15357;DHT22;7778;48.792;9.260;2022-11-20T16:54:37;7.10;99.90
15357;DHT22;7778;48.792;9.260;2022-11-20T16:57:22;7.20;99.90
15357;DHT22;7778;48.792;9.260;2022-11-20T17:00:09;7.20;99.90
15357;DHT22;7778;48.792;9.260;2022-11-20T17:02:55;7.10;99.90
15357;DHT22;7778;48.792;9.260;2022-11-20T17:05:40;7.10;99.90
15357;DHT22;7778;48.792;9.260;2022-11-20T17:08:28;7.10;99.90
15357;DHT22;7778;48.792;9.260;2022-11-20T17:11:15;7.10;99.90
15357;DHT22;7778;48.792;9.260;2022-11-20T17:14:02;7.10;99.90
15357;DHT22;7778;48.792;9.260;2022-11-20T17:16:48;7.10;99.90
15357;DHT22;7778;48.792;9.260;2022-11-20T17:19:33;7.10;99.90
15357;DHT22;7778;48.792;9.260;2022-11-20T17:22:18;7.10;99.90
15357;DHT22;7778;48.792;9.260;2022-11-20T17:25:05;7.10;99.90
15357;DHT22;7778;48.792;9.260;2022-11-20T17:27:53;7.10;99.90
15357;DHT22;7778;48.792;9.260;2022-11-20T17:30:38;7.00;99.90
15357;DHT22;7778;48.792;9.260;2022-11-20T17:33:24;7.00;99.90
15357;DHT22;7778;48.792;9.260;2022-11-20T17:36:11;7.00;99.90
15357;DHT22;7778;48.792;9.260;2022-11-20T17:38:57;7.10;99.90
15357;DHT22;7778;48.792;9.260;2022-11-20T17:41:45;7.00;99.90
15357;DHT22;7778;48.792;9.260;2022-11-20T17:44:51;6.90;99.90
15357;DHT22;7778;48.792;9.260;2022-11-20T17:47:36;7.00;99.90
15357;DHT22;7778;48.792;9.260;2022-11-20T17:50:22;6.90;99.90
15357;DHT22;7778;48.792;9.260;2022-11-20T17:53:07;7.00;99.90
15357;DHT22;7778;48.792;9.260;2022-11-20T17:55:56;7.00;99.90
15357;DHT22;7778;48.792;9.260;2022-11-20T17:59:03;7.10;99.90
15357;DHT22;7778;48.792;9.260;2022-11-20T18:01:49;7.10;99.90
15357;DHT22;7778;48.792;9.260;2022-11-20T18:04:34;7.10;99.90
15357;DHT22;7778;48.792;9.260;2022-11-20T18:07:20;7.10;99.90
15357;DHT22;7778;48.792;9.260;2022-11-20T18:10:07;7.30;99.90
15357;DHT22;7778;48.792;9.260;2022-11-20T18:12:53;7.00;99.90
15357;DHT22;7778;48.792;9.260;2022-11-20T18:15:40;7.10;99.90
15357;DHT22;7778;48.792;9.260;2022-11-20T18:18:25;7.10;99.90
15357;DHT22;7778;48.792;9.260;2022-11-20T18:21:11;7.10;99.90